Time;durP1;ratioP1;P1;durP2;ratioP2;P2;SDS_P1;SDS_P2;PMS_P1;PMS_P2;Temp;Humidity;BMP_temperature;BMP_pressure;BME280_temperature;BME280_humidity;BME280_pressure;Samples;Min_cycle;Max_cycle;Signal;HPM_P1;HPM_P2
2021/06/29 00:00:48;;;;;;;8.82;3.80;;;11.70;99.90;;;;;;5054672;28;20437;-82
2021/06/29 00:03:16;;;;;;;8.15;3.92;;;11.80;99.90;;;;;;5050992;28;20391;-81
2021/06/29 00:05:47;;;;;;;8.25;3.85;;;11.90;99.90;;;;;;5052152;28;20425;-82
2021/06/29 00:08:14;;;;;;;8.63;4.00;;;12.00;99.90;;;;;;5051236;28;20885;-82
2021/06/29 00:10:41;;;;;;;10.35;3.80;;;12.10;99.90;;;;;;5051452;28;20510;-82
2021/06/29 00:13:09;;;;;;;9.15;3.70;;;12.10;99.90;;;;;;5051554;28;20426;-81
2021/06/29 00:15:36;;;;;;;10.07;3.85;;;11.90;99.90;;;;;;5051455;28;20412;-81
2021/06/29 00:18:04;;;;;;;7.90;3.63;;;12.00;99.90;;;;;;5057393;28;20816;-81
2021/06/29 00:20:32;;;;;;;6.28;3.83;;;12.10;99.90;;;;;;5068838;28;20872;-82
2021/06/29 00:23:00;;;;;;;8.63;3.65;;;12.30;99.90;;;;;;5073381;28;20380;-81
2021/06/29 00:25:27;;;;;;;8.18;3.80;;;12.40;99.90;;;;;;5051769;28;20388;-81
2021/06/29 00:27:54;;;;;;;9.93;4.40;;;12.50;99.90;;;;;;5052873;28;20405;-82
2021/06/29 00:30:22;;;;;;;10.35;4.10;;;12.40;99.90;;;;;;5057719;28;20873;-82
2021/06/29 00:32:49;;;;;;;9.70;4.38;;;12.50;99.90;;;;;;5055920;28;20386;-82
2021/06/29 00:35:16;;;;;;;10.48;4.57;;;12.60;99.90;;;;;;5054320;28;21097;-81
2021/06/29 00:37:44;;;;;;;9.98;4.57;;;12.60;99.90;;;;;;5056190;28;20723;-81
2021/06/29 00:40:12;;;;;;;11.15;5.00;;;12.60;99.90;;;;;;5064202;28;20391;-81
2021/06/29 00:42:41;;;;;;;12.02;4.93;;;12.60;99.90;;;;;;5069025;28;20406;-84
2021/06/29 00:45:10;;;;;;;7.47;4.50;;;12.80;99.90;;;;;;5054335;28;20425;-83
2021/06/29 00:47:37;;;;;;;8.75;4.68;;;12.70;99.90;;;;;;5055774;28;20756;-83
2021/06/29 00:50:06;;;;;;;10.32;4.20;;;12.70;99.90;;;;;;5066931;28;20454;-84
2021/06/29 00:52:33;;;;;;;9.68;4.55;;;12.80;99.90;;;;;;5057730;28;20392;-82
2021/06/29 00:55:00;;;;;;;9.35;4.50;;;12.80;99.90;;;;;;5061702;28;20399;-83
2021/06/29 00:57:28;;;;;;;8.90;4.10;;;12.90;99.90;;;;;;5050244;28;20833;-85
2021/06/29 00:59:55;;;;;;;9.75;4.10;;;12.80;99.90;;;;;;5052053;28;20889;-86
2021/06/29 01:02:22;;;;;;;13.77;5.23;;;12.70;99.90;;;;;;5061293;28;20504;-86
2021/06/29 01:05:03;;;;;;;9.17;4.43;;;12.80;99.90;;;;;;5058253;28;20399;-84
2021/06/29 01:07:30;;;;;;;9.23;5.30;;;12.90;99.90;;;;;;5052150;28;20734;-82
2021/06/29 01:09:57;;;;;;;9.52;4.72;;;12.90;99.90;;;;;;5057897;28;20403;-83
2021/06/29 01:12:24;;;;;;;8.15;4.57;;;13.00;99.90;;;;;;5050254;28;20396;-82
2021/06/29 01:14:51;;;;;;;9.90;4.78;;;12.90;99.90;;;;;;5050419;28;20890;-83
2021/06/29 01:17:18;;;;;;;10.25;4.60;;;13.00;99.90;;;;;;5060237;28;20500;-84
2021/06/29 01:19:47;;;;;;;10.13;4.68;;;13.10;99.90;;;;;;5051995;28;20406;-85
2021/06/29 01:22:15;;;;;;;8.83;4.20;;;13.20;99.90;;;;;;5067089;28;20438;-83
2021/06/29 01:24:46;;;;;;;8.25;4.43;;;13.20;99.90;;;;;;5061836;28;20745;-84
2021/06/29 01:32:31;;;;;;;7.50;3.30;;;13.30;99.90;;;;;;5050665;28;20694;-83
2021/06/29 01:35:02;;;;;;;8.37;4.10;;;13.30;99.90;;;;;;5046001;28;20407;-84
2021/06/29 01:37:29;;;;;;;8.85;3.58;;;13.10;99.90;;;;;;5054627;28;20404;-85
2021/06/29 01:40:02;;;;;;;7.80;3.58;;;13.00;99.90;;;;;;5067915;28;20476;-84
2021/06/29 01:42:29;;;;;;;8.63;3.80;;;13.00;99.90;;;;;;5069771;28;20816;-85
2021/06/29 01:44:57;;;;;;;10.02;3.63;;;13.00;99.90;;;;;;5059729;28;20393;-83
2021/06/29 01:47:29;;;;;;;9.30;3.63;;;12.90;99.90;;;;;;5052270;28;20420;-85
2021/06/29 01:49:56;;;;;;;7.45;3.80;;;13.00;99.90;;;;;;5051209;28;20399;-86
2021/06/29 01:52:23;;;;;;;11.15;4.00;;;13.10;99.90;;;;;;5056251;28;21921;-86
2021/06/29 01:54:50;;;;;;;9.40;3.95;;;13.10;99.90;;;;;;5047583;28;20418;-87
2021/06/29 01:57:18;;;;;;;9.95;4.15;;;13.00;99.90;;;;;;5048824;28;20427;-86
2021/06/29 01:59:48;;;;;;;9.48;3.58;;;13.10;99.90;;;;;;5056339;28;20474;-84
2021/06/29 02:02:16;;;;;;;6.40;3.25;;;13.20;99.90;;;;;;5059873;28;20880;-84
2021/06/29 02:04:42;;;;;;;10.50;3.80;;;13.50;99.90;;;;;;5048894;28;20735;-83
2021/06/29 02:07:10;;;;;;;8.43;3.50;;;13.60;99.90;;;;;;5053542;28;20910;-81
2021/06/29 02:09:36;;;;;;;9.82;3.38;;;13.60;99.90;;;;;;5050242;28;20426;-82
2021/06/29 02:12:04;;;;;;;7.18;3.03;;;13.40;99.90;;;;;;5054761;28;20405;-82
2021/06/29 02:14:31;;;;;;;5.70;3.13;;;13.50;99.90;;;;;;5051999;28;20442;-84
2021/06/29 02:16:59;;;;;;;5.30;2.92;;;13.50;99.90;;;;;;5048386;28;20403;-84
2021/06/29 02:19:26;;;;;;;9.17;3.40;;;13.60;99.90;;;;;;5071505;28;20445;-84
2021/06/29 02:21:53;;;;;;;8.75;3.53;;;13.50;99.90;;;;;;5057164;28;20457;-84
2021/06/29 02:24:20;;;;;;;8.32;3.38;;;13.70;99.90;;;;;;5068247;28;20963;-83
2021/06/29 02:26:47;;;;;;;7.63;3.40;;;13.70;99.90;;;;;;5059879;28;20375;-84
2021/06/29 02:29:14;;;;;;;8.98;3.10;;;13.80;99.90;;;;;;5059542;28;20390;-84
2021/06/29 02:31:41;;;;;;;7.40;3.22;;;13.90;99.90;;;;;;5051400;28;20425;-84
2021/06/29 02:34:08;;;;;;;8.00;2.97;;;13.80;99.90;;;;;;5051953;28;20503;-81
2021/06/29 02:36:35;;;;;;;6.27;2.90;;;13.70;99.90;;;;;;5066784;28;20794;-80
2021/06/29 02:39:02;;;;;;;9.83;3.03;;;13.70;99.90;;;;;;5055883;28;20445;-83
2021/06/29 02:41:29;;;;;;;10.57;3.20;;;13.80;99.90;;;;;;5065258;28;20443;-83
2021/06/29 02:43:56;;;;;;;6.53;2.80;;;13.80;99.90;;;;;;5047374;28;20387;-83
2021/06/29 02:46:24;;;;;;;5.70;2.83;;;13.80;99.90;;;;;;5053839;28;20422;-82
2021/06/29 02:48:55;;;;;;;9.70;2.83;;;13.70;99.90;;;;;;5060196;28;20398;-83
2021/06/29 02:51:23;;;;;;;6.93;2.60;;;13.70;99.90;;;;;;5058708;28;20378;-83
2021/06/29 02:53:50;;;;;;;6.60;2.70;;;13.80;99.90;;;;;;5061543;28;21088;-82
2021/06/29 02:59:02;;;;;;;5.80;2.70;;;13.90;99.90;;;;;;5070428;28;20383;-83
2021/06/29 03:01:29;;;;;;;4.70;2.50;;;13.90;99.90;;;;;;5075593;28;20777;-82
2021/06/29 03:03:56;;;;;;;6.13;2.78;;;13.80;99.90;;;;;;5064047;28;20377;-82
2021/06/29 03:06:23;;;;;;;7.05;2.95;;;13.80;99.90;;;;;;5050203;28;21932;-81
2021/06/29 03:08:50;;;;;;;7.70;3.33;;;13.80;99.90;;;;;;5053127;28;20401;-82
2021/06/29 03:11:17;;;;;;;9.52;3.83;;;13.70;99.90;;;;;;5052235;28;20403;-81
2021/06/29 03:13:44;;;;;;;8.38;3.35;;;13.60;99.90;;;;;;5053577;28;20405;-81
2021/06/29 03:16:11;;;;;;;8.10;3.60;;;13.60;99.90;;;;;;5055061;28;20463;-81
2021/06/29 03:18:38;;;;;;;8.63;3.50;;;13.70;99.90;;;;;;5078621;28;20379;-82
2021/06/29 03:21:08;;;;;;;6.53;3.45;;;13.80;99.90;;;;;;5059071;28;20393;-82
2021/06/29 03:23:36;;;;;;;6.45;3.65;;;13.70;99.90;;;;;;5053673;28;20392;-84
2021/06/29 03:26:04;;;;;;;7.43;3.90;;;13.70;99.90;;;;;;5051767;28;20741;-81
2021/06/29 03:28:31;;;;;;;6.43;3.45;;;13.70;99.90;;;;;;5053207;28;20403;-82
2021/06/29 03:30:58;;;;;;;6.47;3.83;;;13.70;99.90;;;;;;5062911;28;20455;-83
2021/06/29 03:33:25;;;;;;;7.32;3.75;;;13.70;99.90;;;;;;5052167;28;20496;-82
2021/06/29 03:35:52;;;;;;;7.03;3.95;;;13.60;99.90;;;;;;5051601;28;20457;-83
2021/06/29 03:38:19;;;;;;;7.73;4.37;;;13.60;99.90;;;;;;5053026;28;20797;-83
2021/06/29 03:40:46;;;;;;;8.40;4.40;;;13.60;99.90;;;;;;5067627;28;20400;-83
2021/06/29 03:43:13;;;;;;;7.18;4.65;;;13.50;99.90;;;;;;5053396;28;20396;-84
2021/06/29 03:45:43;;;;;;;8.88;4.65;;;13.50;99.90;;;;;;5055060;28;20406;-84
2021/06/29 03:48:10;;;;;;;8.70;4.82;;;13.60;99.90;;;;;;5063366;28;20439;-84
2021/06/29 03:50:37;;;;;;;8.50;4.97;;;13.60;99.90;;;;;;5067437;28;20473;-83
2021/06/29 03:53:04;;;;;;;11.38;5.55;;;13.80;99.90;;;;;;5055542;28;20494;-81
2021/06/29 03:55:32;;;;;;;9.57;4.80;;;13.90;99.90;;;;;;5061519;28;20411;-82
2021/06/29 03:57:59;;;;;;;9.02;5.63;;;13.90;99.90;;;;;;5062051;28;20390;-81
2021/06/29 04:00:26;;;;;;;9.52;5.88;;;13.90;99.90;;;;;;5061981;28;20901;-82
2021/06/29 04:02:53;;;;;;;13.68;6.10;;;14.00;99.90;;;;;;5055864;28;20866;-81
2021/06/29 04:05:20;;;;;;;9.77;5.60;;;14.10;99.90;;;;;;5054981;28;20430;-83
2021/06/29 04:07:47;;;;;;;10.53;5.40;;;14.10;99.90;;;;;;5055763;28;20418;-83
2021/06/29 04:10:14;;;;;;;8.60;5.45;;;14.10;99.90;;;;;;5066020;28;20429;-83
2021/06/29 04:12:41;;;;;;;8.00;4.55;;;14.20;99.90;;;;;;5079570;28;20739;-83
2021/06/29 04:15:10;;;;;;;8.33;5.20;;;14.10;99.90;;;;;;5054295;28;20487;-84
2021/06/29 04:17:37;;;;;;;8.18;4.72;;;14.10;99.90;;;;;;5051166;28;20794;-83
2021/06/29 04:20:07;;;;;;;8.55;5.05;;;14.20;99.90;;;;;;5056691;28;20398;-82
2021/06/29 04:22:34;;;;;;;9.80;5.30;;;14.30;99.90;;;;;;5058733;28;20394;-84
2021/06/29 04:25:03;;;;;;;10.18;4.97;;;14.40;99.90;;;;;;5066017;28;20413;-83
2021/06/29 04:27:36;;;;;;;8.45;4.93;;;14.50;99.90;;;;;;5057830;28;20395;-82
2021/06/29 04:30:09;;;;;;;9.40;4.90;;;14.70;99.90;;;;;;5057196;28;20416;-85
2021/06/29 04:32:37;;;;;;;8.15;4.57;;;14.80;99.90;;;;;;5065147;28;20788;-83
2021/06/29 04:35:04;;;;;;;10.60;5.95;;;15.00;99.90;;;;;;5063166;28;20400;-83
2021/06/29 04:37:31;;;;;;;12.02;4.75;;;14.70;99.90;;;;;;5055001;28;20406;-82
2021/06/29 04:39:58;;;;;;;10.27;4.70;;;14.50;99.90;;;;;;5051331;28;20868;-82
2021/06/29 04:42:25;;;;;;;8.10;4.65;;;14.30;99.90;;;;;;5055930;28;20412;-83
2021/06/29 04:44:52;;;;;;;7.88;4.43;;;14.20;99.90;;;;;;5050070;28;20886;-82
2021/06/29 04:47:19;;;;;;;9.02;4.50;;;14.10;99.90;;;;;;5054535;28;20400;-82
2021/06/29 04:49:46;;;;;;;7.63;4.78;;;13.90;99.90;;;;;;5055537;28;20422;-83
2021/06/29 04:52:13;;;;;;;7.65;4.20;;;13.90;99.90;;;;;;5054603;28;20493;-82
2021/06/29 04:54:40;;;;;;;8.85;4.65;;;14.00;99.90;;;;;;5052900;28;20399;-81
2021/06/29 04:57:08;;;;;;;10.13;5.13;;;14.10;99.90;;;;;;5048778;28;20465;-81
2021/06/29 04:59:35;;;;;;;7.70;5.15;;;14.20;99.90;;;;;;5050076;28;20559;-81
2021/06/29 05:02:02;;;;;;;9.38;5.50;;;14.20;99.90;;;;;;5059035;28;20401;-82
2021/06/29 05:04:29;;;;;;;10.02;5.60;;;14.10;99.90;;;;;;5063805;28;20501;-82
2021/06/29 05:06:56;;;;;;;10.43;5.97;;;14.00;99.90;;;;;;5065486;28;20757;-82
2021/06/29 05:09:23;;;;;;;8.40;6.10;;;13.80;99.90;;;;;;5054587;28;20404;-83
2021/06/29 05:11:50;;;;;;;10.83;6.13;;;13.80;99.90;;;;;;5051904;28;20492;-82
2021/06/29 05:14:17;;;;;;;8.87;6.20;;;13.70;99.90;;;;;;5049767;28;20757;-82
2021/06/29 05:16:44;;;;;;;8.57;5.90;;;13.60;99.90;;;;;;5048971;28;20771;-83
2021/06/29 05:19:11;;;;;;;8.90;5.30;;;13.60;99.90;;;;;;5049390;28;20402;-84
2021/06/29 05:21:38;;;;;;;9.15;6.07;;;13.50;99.90;;;;;;5053012;28;20402;-83
2021/06/29 05:24:05;;;;;;;12.18;8.77;;;13.50;99.90;;;;;;5054492;28;20404;-83
2021/06/29 05:26:32;;;;;;;9.77;6.90;;;13.60;99.90;;;;;;5056110;28;20394;-85
2021/06/29 05:29:00;;;;;;;10.77;5.30;;;13.60;99.90;;;;;;5057627;28;20394;-85
2021/06/29 05:31:27;;;;;;;9.02;4.90;;;13.60;99.90;;;;;;5063232;28;20384;-86
2021/06/29 05:33:54;;;;;;;9.68;5.78;;;13.70;99.90;;;;;;5061580;28;20394;-86
2021/06/29 05:36:21;;;;;;;8.57;5.03;;;13.70;99.90;;;;;;5065640;28;20410;-84
2021/06/29 05:38:48;;;;;;;10.13;5.35;;;13.70;99.90;;;;;;5058157;28;20399;-83
2021/06/29 05:41:15;;;;;;;8.45;5.40;;;13.80;99.90;;;;;;5052288;28;21216;-83
2021/06/29 05:43:42;;;;;;;7.82;4.57;;;13.70;99.90;;;;;;5067713;28;20378;-82
2021/06/29 05:46:09;;;;;;;6.47;4.90;;;13.60;99.90;;;;;;5069361;28;20366;-83
2021/06/29 05:48:36;;;;;;;9.77;4.40;;;13.60;99.90;;;;;;5060811;28;20467;-82
2021/06/29 05:51:03;;;;;;;8.18;5.03;;;13.60;99.90;;;;;;5057698;28;20391;-82
2021/06/29 05:53:31;;;;;;;7.72;4.97;;;13.60;99.90;;;;;;5064508;28;20386;-82
2021/06/29 05:55:59;;;;;;;8.70;4.50;;;13.60;99.90;;;;;;5064868;28;20823;-85
2021/06/29 05:58:26;;;;;;;9.75;4.90;;;13.60;99.90;;;;;;5053525;28;20437;-83
2021/06/29 06:00:53;;;;;;;8.98;4.57;;;13.60;99.90;;;;;;5050324;28;20407;-82
2021/06/29 06:03:21;;;;;;;19.20;12.50;;;13.60;99.90;;;;;;5048679;28;20755;-83
2021/06/29 06:05:47;;;;;;;13.95;10.65;;;13.70;99.90;;;;;;5048725;28;20403;-83
2021/06/29 06:08:15;;;;;;;13.13;5.65;;;13.70;99.90;;;;;;5050114;28;20456;-83
2021/06/29 06:10:42;;;;;;;8.88;4.90;;;13.80;99.90;;;;;;5056966;28;20411;-82
2021/06/29 06:13:09;;;;;;;11.20;4.70;;;13.80;99.90;;;;;;5057012;28;20398;-82
2021/06/29 06:15:36;;;;;;;7.57;4.40;;;13.90;99.90;;;;;;5057002;28;20450;-83
2021/06/29 06:18:05;;;;;;;9.43;4.53;;;13.90;99.90;;;;;;5048647;28;20369;-82
2021/06/29 06:20:34;;;;;;;9.77;4.25;;;13.80;99.90;;;;;;5048826;28;20412;-82
2021/06/29 06:23:01;;;;;;;9.00;4.15;;;13.80;99.90;;;;;;5049873;28;20445;-82
2021/06/29 06:25:29;;;;;;;7.43;4.35;;;13.80;99.90;;;;;;5057876;28;20403;-83
2021/06/29 06:27:56;;;;;;;8.13;4.50;;;13.70;99.90;;;;;;5057402;28;20379;-83
2021/06/29 06:30:23;;;;;;;9.20;4.60;;;13.60;99.90;;;;;;5057485;28;20382;-82
2021/06/29 06:32:50;;;;;;;7.05;4.68;;;13.50;99.90;;;;;;5049210;28;20376;-83
2021/06/29 06:35:18;;;;;;;6.70;4.70;;;13.40;99.90;;;;;;5049043;28;20396;-82
2021/06/29 06:37:45;;;;;;;7.97;4.82;;;13.30;99.90;;;;;;5057110;28;20875;-82
2021/06/29 06:40:13;;;;;;;8.93;4.97;;;13.30;99.90;;;;;;5050539;28;20399;-83
2021/06/29 06:42:41;;;;;;;10.88;5.22;;;13.20;99.90;;;;;;5048596;28;20418;-82
2021/06/29 06:45:10;;;;;;;8.55;5.10;;;13.10;99.90;;;;;;5052941;28;20392;-83
2021/06/29 06:47:37;;;;;;;6.80;5.00;;;13.10;99.90;;;;;;5052854;28;20391;-82
2021/06/29 06:50:07;;;;;;;10.32;5.20;;;13.00;99.90;;;;;;5051282;28;20449;-83
2021/06/29 06:52:35;;;;;;;9.77;5.57;;;13.10;99.90;;;;;;5053348;28;20388;-82
2021/06/29 06:55:06;;;;;;;6.97;5.10;;;13.10;99.90;;;;;;5062243;28;20513;-82
2021/06/29 06:57:33;;;;;;;9.63;5.53;;;13.00;99.90;;;;;;5060627;28;20407;-82
2021/06/29 07:00:00;;;;;;;9.40;5.75;;;12.90;99.90;;;;;;5056868;28;20470;-82
2021/06/29 07:02:27;;;;;;;8.43;5.60;;;13.00;99.90;;;;;;5067992;28;20382;-82
2021/06/29 07:04:54;;;;;;;10.85;5.50;;;12.90;99.90;;;;;;5060348;28;20407;-83
2021/06/29 07:07:21;;;;;;;11.27;5.80;;;12.90;99.90;;;;;;5064447;28;20890;-82
2021/06/29 07:09:48;;;;;;;10.73;5.97;;;12.90;99.90;;;;;;5076761;28;20545;-82
2021/06/29 07:12:16;;;;;;;11.50;5.60;;;12.90;99.90;;;;;;5071190;28;20737;-82
2021/06/29 07:14:43;;;;;;;8.93;5.25;;;13.00;99.90;;;;;;5070673;28;20782;-83
2021/06/29 07:17:10;;;;;;;10.98;5.05;;;13.00;99.90;;;;;;5072032;28;20785;-84
2021/06/29 07:19:37;;;;;;;38.22;26.98;;;13.00;99.90;;;;;;5072089;28;20386;-82
2021/06/29 07:22:04;;;;;;;22.52;14.45;;;13.00;99.90;;;;;;5072071;28;20559;-83
2021/06/29 07:24:31;;;;;;;19.75;11.95;;;12.90;99.90;;;;;;5071510;28;20523;-83
2021/06/29 07:26:58;;;;;;;20.63;13.13;;;12.90;99.90;;;;;;5071507;28;20473;-83
2021/06/29 07:29:25;;;;;;;27.58;18.58;;;12.80;99.90;;;;;;5062866;28;20386;-83
2021/06/29 07:31:52;;;;;;;24.67;14.88;;;12.80;99.90;;;;;;5073060;28;20922;-85
2021/06/29 07:34:19;;;;;;;35.88;28.25;;;12.80;99.90;;;;;;5070501;28;20389;-85
2021/06/29 07:36:46;;;;;;;21.20;14.18;;;12.80;99.90;;;;;;5069748;28;20753;-83
2021/06/29 07:39:13;;;;;;;17.58;7.03;;;12.70;99.90;;;;;;5067092;28;20386;-84
2021/06/29 07:41:40;;;;;;;9.73;5.97;;;12.70;99.90;;;;;;5069728;28;20431;-84
2021/06/29 07:44:07;;;;;;;8.63;4.95;;;12.70;99.90;;;;;;5071700;28;20371;-84
2021/06/29 07:46:34;;;;;;;11.05;5.55;;;12.60;99.90;;;;;;5071418;28;20423;-85
2021/06/29 07:49:01;;;;;;;11.75;6.63;;;12.50;99.90;;;;;;5050843;28;20411;-84
2021/06/29 07:51:29;;;;;;;9.77;4.70;;;12.50;99.90;;;;;;5051950;28;20399;-86
2021/06/29 07:53:56;;;;;;;9.48;4.32;;;12.50;99.90;;;;;;5091178;28;20376;-86
2021/06/29 07:56:24;;;;;;;8.77;4.77;;;12.40;99.90;;;;;;5064269;28;20780;-85
2021/06/29 07:58:51;;;;;;;8.47;4.30;;;12.50;99.90;;;;;;5062868;28;20382;-84
2021/06/29 08:01:19;;;;;;;4.28;2.25;;;12.50;99.90;;;;;;5062704;28;20465;-84
2021/06/29 08:03:46;;;;;;;2.38;2.10;;;12.50;99.90;;;;;;5056318;28;20470;-83
2021/06/29 08:06:14;;;;;;;2.97;1.60;;;12.50;99.90;;;;;;5051671;28;20486;-83
2021/06/29 08:08:41;;;;;;;2.50;1.90;;;12.50;99.90;;;;;;5056096;28;20374;-83
2021/06/29 08:11:09;;;;;;;4.32;1.92;;;12.50;99.90;;;;;;5053369;28;20400;-83
2021/06/29 08:13:37;;;;;;;3.80;2.15;;;12.50;99.90;;;;;;5051985;28;20450;-84
2021/06/29 08:16:04;;;;;;;4.93;2.37;;;12.50;99.90;;;;;;5050813;28;20496;-85
2021/06/29 08:18:33;;;;;;;4.57;2.70;;;12.50;99.90;;;;;;5065562;28;20606;-85
2021/06/29 08:21:01;;;;;;;4.18;2.85;;;12.50;99.90;;;;;;5052962;28;20386;-85
2021/06/29 08:23:29;;;;;;;4.30;2.78;;;12.60;99.90;;;;;;5054241;28;20489;-85
2021/06/29 08:25:56;;;;;;;4.40;2.60;;;12.60;99.90;;;;;;5050572;28;20398;-84
2021/06/29 08:28:23;;;;;;;6.80;3.40;;;12.50;99.90;;;;;;5061508;28;20382;-84
2021/06/29 08:30:53;;;;;;;4.82;3.20;;;12.50;99.90;;;;;;5056348;28;20778;-86
2021/06/29 08:33:21;;;;;;;9.50;4.97;;;12.50;99.90;;;;;;5056346;28;20381;-86
2021/06/29 08:35:50;;;;;;;7.18;4.45;;;12.50;99.90;;;;;;5053368;28;20410;-85
2021/06/29 08:38:19;;;;;;;8.05;4.80;;;12.60;99.90;;;;;;5067342;28;20394;-85
2021/06/29 08:40:46;;;;;;;7.20;4.43;;;12.60;99.90;;;;;;5053559;28;20457;-85
2021/06/29 08:43:13;;;;;;;13.13;7.38;;;12.60;99.90;;;;;;5055890;28;20400;-83
2021/06/29 08:45:41;;;;;;;11.93;6.25;;;12.60;99.90;;;;;;5056714;28;20405;-84
2021/06/29 08:48:09;;;;;;;10.43;7.25;;;12.60;99.90;;;;;;5054204;28;20383;-84
2021/06/29 08:50:39;;;;;;;14.20;8.55;;;12.60;99.90;;;;;;5062094;28;20406;-84
2021/06/29 08:53:12;;;;;;;12.43;8.27;;;12.60;99.90;;;;;;5059584;28;20391;-85
2021/06/29 08:55:42;;;;;;;11.55;8.30;;;12.50;99.90;;;;;;5051889;28;20771;-83
2021/06/29 08:58:09;;;;;;;9.63;6.55;;;12.60;99.90;;;;;;5053314;28;20396;-84
2021/06/29 09:00:37;;;;;;;13.00;5.95;;;12.60;99.90;;;;;;5058512;28;20393;-83
2021/06/29 09:03:06;;;;;;;9.07;6.00;;;12.60;99.90;;;;;;5054204;28;20474;-85
2021/06/29 09:05:33;;;;;;;11.23;7.38;;;12.60;99.90;;;;;;5054017;28;20435;-84
2021/06/29 09:08:04;;;;;;;11.85;7.82;;;12.60;99.90;;;;;;5061823;28;20386;-85
2021/06/29 09:10:31;;;;;;;12.70;8.70;;;12.60;99.90;;;;;;5059282;28;20395;-86
2021/06/29 09:12:59;;;;;;;21.20;12.30;;;12.70;99.90;;;;;;5055793;28;20483;-85
2021/06/29 09:15:42;;;;;;;14.02;9.45;;;12.60;99.90;;;;;;5051290;28;20411;-86
2021/06/29 09:18:17;;;;;;;17.17;10.55;;;12.60;99.90;;;;;;5050545;28;20369;-85
2021/06/29 09:20:55;;;;;;;15.73;10.63;;;12.50;99.90;;;;;;5051184;28;20395;-85
2021/06/29 09:23:34;;;;;;;15.10;9.27;;;12.50;99.90;;;;;;5064066;28;20884;-84
2021/06/29 09:26:07;;;;;;;16.33;9.05;;;12.50;99.90;;;;;;5056380;28;20407;-84
2021/06/29 09:28:45;;;;;;;16.63;9.60;;;12.50;99.90;;;;;;5050850;28;20792;-84
2021/06/29 09:31:32;;;;;;;12.03;9.20;;;12.50;99.90;;;;;;5049919;28;20403;-83
2021/06/29 09:34:07;;;;;;;17.33;11.30;;;12.40;99.90;;;;;;5055028;28;20897;-83
2021/06/29 09:36:37;;;;;;;12.63;10.65;;;12.50;99.90;;;;;;5089673;28;20393;-83
2021/06/29 09:39:16;;;;;;;12.48;9.30;;;12.50;99.90;;;;;;5060985;28;20940;-83
2021/06/29 09:41:47;;;;;;;16.45;9.40;;;12.50;99.90;;;;;;5049210;28;20392;-83
2021/06/29 09:44:19;;;;;;;15.55;10.32;;;12.50;99.90;;;;;;5054324;28;20392;-84
2021/06/29 09:46:46;;;;;;;13.95;9.55;;;12.50;99.90;;;;;;5084625;28;20484;-82
2021/06/29 09:49:16;;;;;;;17.67;13.17;;;12.50;99.90;;;;;;5055870;28;20436;-82
2021/06/29 09:51:53;;;;;;;22.27;14.20;;;12.50;99.90;;;;;;5054269;28;20426;-83
2021/06/29 09:54:21;;;;;;;20.45;15.48;;;12.50;99.90;;;;;;5063132;28;20412;-83
2021/06/29 09:56:49;;;;;;;65.55;18.27;;;12.50;99.90;;;;;;5055058;28;20780;-83
2021/06/29 09:59:25;;;;;;;47.60;18.27;;;12.60;99.90;;;;;;5058951;28;20905;-83
2021/06/29 10:02:30;;;;;;;38.58;18.90;;;12.60;99.90;;;;;;5058243;28;20447;-84
2021/06/29 10:05:24;;;;;;;22.50;15.43;;;12.60;99.90;;;;;;5048594;28;20748;-83
2021/06/29 10:07:52;;;;;;;25.10;15.57;;;12.60;99.90;;;;;;5047508;28;20925;-83
2021/06/29 10:10:19;;;;;;;22.33;14.93;;;12.60;99.90;;;;;;5048749;28;20396;-83
2021/06/29 10:12:46;;;;;;;23.90;15.35;;;12.50;99.90;;;;;;5060197;28;20791;-83
2021/06/29 10:15:13;;;;;;;26.20;15.37;;;12.60;99.90;;;;;;5056350;28;20493;-83
2021/06/29 10:17:41;;;;;;;24.55;15.40;;;12.70;99.90;;;;;;5048742;28;20372;-83
2021/06/29 10:20:12;;;;;;;27.25;15.90;;;12.70;99.90;;;;;;5048151;28;22325;-83
2021/06/29 10:22:41;;;;;;;126.35;17.05;;;12.70;99.90;;;;;;5066911;28;20388;-83
2021/06/29 10:25:09;;;;;;;126.88;20.27;;;12.60;99.90;;;;;;5052297;28;20404;-84
2021/06/29 10:27:38;;;;;;;273.63;21.83;;;12.50;99.90;;;;;;5049375;28;20410;-85
2021/06/29 10:30:06;;;;;;;33.17;16.58;;;12.60;99.90;;;;;;5050146;28;20486;-86
2021/06/29 10:32:33;;;;;;;24.45;15.82;;;12.50;99.90;;;;;;5052552;28;20398;-86
2021/06/29 10:35:01;;;;;;;25.43;16.30;;;12.50;99.90;;;;;;5064719;28;20400;-85
2021/06/29 10:37:28;;;;;;;22.58;14.40;;;12.50;99.90;;;;;;5067735;28;20389;-87
2021/06/29 10:39:56;;;;;;;21.27;14.23;;;12.50;99.90;;;;;;5060438;28;20538;-87
2021/06/29 10:42:23;;;;;;;19.77;13.30;;;12.50;99.90;;;;;;5052157;28;21074;-85
2021/06/29 10:44:51;;;;;;;20.38;12.68;;;12.50;99.90;;;;;;5053855;28;20816;-91
2021/06/29 10:47:28;;;;;;;14.90;10.90;;;12.60;99.90;;;;;;5053103;28;20410;-86
2021/06/29 10:50:00;;;;;;;14.88;11.23;;;12.70;99.90;;;;;;5052176;28;20898;-84
2021/06/29 10:52:27;;;;;;;17.38;12.50;;;12.80;99.90;;;;;;5049691;28;20383;-85
2021/06/29 10:54:58;;;;;;;18.00;13.27;;;12.80;99.90;;;;;;5056390;28;20400;-86
2021/06/29 10:57:40;;;;;;;19.60;15.05;;;12.70;99.90;;;;;;5055409;28;20403;-82
2021/06/29 11:00:22;;;;;;;21.98;17.23;;;12.70;99.90;;;;;;5049392;28;21248;-83
2021/06/29 11:03:01;;;;;;;24.52;19.40;;;12.60;99.90;;;;;;5048232;28;20410;-85
2021/06/29 11:05:36;;;;;;;27.77;20.13;;;12.60;99.90;;;;;;5049184;28;20391;-85
2021/06/29 11:08:16;;;;;;;28.48;19.90;;;12.50;99.90;;;;;;5048508;28;20430;-85
2021/06/29 11:10:47;;;;;;;21.70;16.90;;;12.60;99.90;;;;;;5062550;28;20381;-85
2021/06/29 11:13:15;;;;;;;20.33;14.68;;;12.50;99.90;;;;;;5066879;28;20392;-87
2021/06/29 11:15:56;;;;;;;15.02;10.88;;;12.50;99.90;;;;;;5059625;28;20746;-86
2021/06/29 11:18:49;;;;;;;15.07;11.00;;;12.50;99.90;;;;;;5057132;28;20430;-85
2021/06/29 11:21:19;;;;;;;16.42;10.63;;;12.50;99.90;;;;;;5048109;28;20400;-84
2021/06/29 11:23:47;;;;;;;10.38;5.50;;;12.40;99.90;;;;;;5051916;28;20478;-85
2021/06/29 11:26:14;;;;;;;8.40;5.37;;;12.40;99.90;;;;;;5058821;28;20384;-85
2021/06/29 11:28:45;;;;;;;9.00;4.85;;;12.30;99.90;;;;;;5062322;28;20370;-85
2021/06/29 11:31:55;;;;;;;10.52;4.70;;;12.30;99.90;;;;;;5070190;28;20465;-85
2021/06/29 11:34:26;;;;;;;7.85;4.90;;;12.30;99.90;;;;;;5051885;28;20415;-85
2021/06/29 11:36:55;;;;;;;6.68;4.28;;;12.30;99.90;;;;;;5054242;28;20409;-86
2021/06/29 11:39:24;;;;;;;6.85;4.40;;;12.30;99.90;;;;;;5047749;28;20860;-87
2021/06/29 11:42:04;;;;;;;8.05;5.30;;;12.30;99.90;;;;;;5052397;28;20970;-86
2021/06/29 11:44:34;;;;;;;7.50;4.97;;;12.20;99.90;;;;;;5062468;28;20386;-87
2021/06/29 11:47:10;;;;;;;16.55;6.43;;;12.20;99.90;;;;;;5052483;28;20438;-85
2021/06/29 11:49:59;;;;;;;16.88;7.75;;;12.20;99.90;;;;;;5055196;28;20410;-83
2021/06/29 11:52:28;;;;;;;16.83;9.60;;;12.10;99.90;;;;;;5058816;28;20465;-85
2021/06/29 11:54:59;;;;;;;13.93;6.75;;;12.10;99.90;;;;;;5059273;28;20778;-81
2021/06/29 11:57:35;;;;;;;12.40;6.10;;;12.10;99.90;;;;;;5057220;28;20395;-84
2021/06/29 12:00:30;;;;;;;9.70;5.13;;;12.20;99.90;;;;;;5053256;28;20544;-84
2021/06/29 12:02:59;;;;;;;9.70;5.30;;;12.10;99.90;;;;;;5051606;28;20371;-84
2021/06/29 12:05:28;;;;;;;10.02;4.72;;;12.10;99.90;;;;;;5069028;28;20387;-84
2021/06/29 12:08:02;;;;;;;10.05;4.70;;;12.10;99.90;;;;;;5062849;28;20383;-82
2021/06/29 12:10:35;;;;;;;10.55;4.57;;;12.10;99.90;;;;;;5057161;28;20445;-80
2021/06/29 12:13:07;;;;;;;9.10;3.90;;;12.10;99.90;;;;;;5074765;28;20392;-83
2021/06/29 12:15:39;;;;;;;9.05;3.72;;;12.10;99.90;;;;;;5059848;28;20479;-83
2021/06/29 12:18:13;;;;;;;9.70;4.63;;;12.00;99.90;;;;;;5051199;28;20738;-85
2021/06/29 12:20:54;;;;;;;8.55;4.13;;;12.00;99.90;;;;;;5051078;28;20368;-84
2021/06/29 12:23:23;;;;;;;12.73;7.60;;;12.00;99.90;;;;;;5055637;28;20433;-83
2021/06/29 12:26:12;;;;;;;9.03;5.50;;;12.00;99.90;;;;;;5060236;28;20431;-82
2021/06/29 12:28:40;;;;;;;8.57;5.97;;;12.00;99.90;;;;;;5057072;28;20496;-83
2021/06/29 12:31:13;;;;;;;7.83;4.33;;;12.10;99.90;;;;;;5060940;28;20495;-83
2021/06/29 12:33:50;;;;;;;5.20;3.30;;;12.10;99.90;;;;;;5056189;28;20395;-83
2021/06/29 12:36:22;;;;;;;6.82;3.78;;;12.00;99.90;;;;;;5056662;28;20413;-81
2021/06/29 12:38:54;;;;;;;9.60;4.30;;;12.00;99.90;;;;;;5054938;28;20895;-82
2021/06/29 12:41:31;;;;;;;7.22;4.28;;;12.00;99.90;;;;;;5056364;28;20396;-82
2021/06/29 12:44:00;;;;;;;6.80;4.13;;;12.00;99.90;;;;;;5054768;28;20403;-82
2021/06/29 12:46:33;;;;;;;10.95;4.80;;;12.00;99.90;;;;;;5059073;28;20602;-83
2021/06/29 12:49:06;;;;;;;8.18;4.47;;;12.00;99.90;;;;;;5057398;28;20390;-84
2021/06/29 12:51:47;;;;;;;7.93;4.70;;;11.90;99.90;;;;;;5056578;28;20376;-84
2021/06/29 12:54:16;;;;;;;7.80;5.00;;;11.90;99.90;;;;;;5060560;28;20378;-84
2021/06/29 12:56:52;;;;;;;8.55;5.18;;;11.90;99.90;;;;;;5062964;28;20415;-84
2021/06/29 12:59:28;;;;;;;9.73;5.45;;;11.80;99.90;;;;;;5067380;28;21055;-84